Time;durP1;ratioP1;P1;durP2;ratioP2;P2;SDS_P1;SDS_P2;PMS_P1;PMS_P2;Temp;Humidity;BMP_temperature;BMP_pressure;BME280_temperature;BME280_humidity;BME280_pressure;Samples;Min_cycle;Max_cycle;Signal;HPM_P1;HPM_P2
2022/12/06 00:01:08;;;;;;;;;;;13.30;96.00;;;;;;4594238;19;19922;-21
2022/12/06 00:02:39;;;;;;;;;;;13.30;96.00;;;;;;4594440;19;20329;-22
2022/12/06 00:04:11;;;;;;;;;;;13.30;96.00;;;;;;4594560;19;19914;-22
2022/12/06 00:05:43;;;;;;;;;;;13.30;96.00;;;;;;4593786;19;19957;-23
2022/12/06 00:07:14;;;;;;;;;;;13.30;96.00;;;;;;4594036;19;19919;-21
2022/12/06 00:08:45;;;;;;;;;;;13.30;96.00;;;;;;4594149;19;19919;-22
2022/12/06 00:10:16;;;;;;;;;;;13.30;96.00;;;;;;4593735;19;19911;-21
2022/12/06 00:11:48;;;;;;;;;;;13.30;96.00;;;;;;4592285;19;20306;-24
2022/12/06 00:13:18;;;;;;;;;;;13.30;96.00;;;;;;4593152;19;19926;-22
2022/12/06 00:14:51;;;;;;;;;;;13.30;96.10;;;;;;4594278;19;19919;-22
2022/12/06 00:16:22;;;;;;;;;;;13.30;96.10;;;;;;4592566;19;20011;-22
2022/12/06 00:17:54;;;;;;;;;;;13.20;96.00;;;;;;4592977;19;19922;-23
2022/12/06 00:19:25;;;;;;;;;;;13.30;96.10;;;;;;4593739;19;20341;-22
2022/12/06 00:21:03;;;;;;;;;;;13.30;96.10;;;;;;4594049;19;19921;-22
2022/12/06 00:22:34;;;;;;;;;;;13.30;96.10;;;;;;4593252;19;20352;-21
2022/12/06 00:24:05;;;;;;;;;;;13.30;96.10;;;;;;4593446;19;19919;-24
2022/12/06 00:25:36;;;;;;;;;;;13.30;96.10;;;;;;4593547;19;19919;-22
2022/12/06 00:27:07;;;;;;;;;;;13.30;96.10;;;;;;4594039;19;19922;-23
2022/12/06 00:28:39;;;;;;;;;;;13.30;96.10;;;;;;4593049;19;19937;-22
2022/12/06 00:30:10;;;;;;;;;;;13.20;96.10;;;;;;4593531;19;19915;-22
2022/12/06 00:31:41;;;;;;;;;;;13.30;96.10;;;;;;4592192;19;19930;-21
2022/12/06 00:33:12;;;;;;;;;;;13.30;96.10;;;;;;4592048;19;20325;-23
2022/12/06 00:34:45;;;;;;;;;;;13.30;96.10;;;;;;4592800;19;19923;-22
2022/12/06 00:36:16;;;;;;;;;;;13.30;96.20;;;;;;4593443;19;19936;-22
2022/12/06 00:37:47;;;;;;;;;;;13.30;96.20;;;;;;4593744;19;19938;-22
2022/12/06 00:39:18;;;;;;;;;;;13.30;96.20;;;;;;4592297;19;20301;-22
2022/12/06 00:40:49;;;;;;;;;;;13.20;96.10;;;;;;4593078;19;19974;-23
2022/12/06 00:42:21;;;;;;;;;;;13.20;96.10;;;;;;4593548;19;19930;-23
2022/12/06 00:43:52;;;;;;;;;;;13.30;96.20;;;;;;4593944;19;19978;-22
2022/12/06 00:45:23;;;;;;;;;;;13.20;96.20;;;;;;4592899;19;19939;-23
2022/12/06 00:46:54;;;;;;;;;;;13.30;96.20;;;;;;4593187;19;19966;-22
2022/12/06 00:48:25;;;;;;;;;;;13.20;96.20;;;;;;4593397;19;19922;-23
2022/12/06 00:49:56;;;;;;;;;;;13.20;96.20;;;;;;4592097;19;19915;-21
2022/12/06 00:51:28;;;;;;;;;;;13.20;96.20;;;;;;4592397;19;19950;-25
2022/12/06 00:52:59;;;;;;;;;;;13.20;96.20;;;;;;4593111;19;19918;-22
2022/12/06 00:54:33;;;;;;;;;;;13.20;96.20;;;;;;4591717;19;19915;-22
2022/12/06 00:56:06;;;;;;;;;;;13.20;96.20;;;;;;4591638;19;19942;-21
2022/12/06 00:57:36;;;;;;;;;;;13.20;96.20;;;;;;4592739;19;20271;-22
2022/12/06 00:59:08;;;;;;;;;;;13.20;96.20;;;;;;4592696;19;20341;-22
2022/12/06 01:00:41;;;;;;;;;;;13.20;96.30;;;;;;4592972;19;19974;-22
2022/12/06 01:02:11;;;;;;;;;;;13.20;96.30;;;;;;4593648;19;19922;-22
2022/12/06 01:03:43;;;;;;;;;;;13.20;96.30;;;;;;4592721;19;19927;-23
2022/12/06 01:05:14;;;;;;;;;;;13.20;96.30;;;;;;4592338;19;20249;-22
2022/12/06 01:06:45;;;;;;;;;;;13.20;96.30;;;;;;4593266;19;19946;-21
2022/12/06 01:08:16;;;;;;;;;;;13.20;96.30;;;;;;4592301;19;19915;-22
2022/12/06 01:09:47;;;;;;;;;;;13.20;96.30;;;;;;4592472;19;19911;-22
2022/12/06 01:11:19;;;;;;;;;;;13.20;96.30;;;;;;4592527;19;19915;-24
2022/12/06 01:12:50;;;;;;;;;;;13.20;96.30;;;;;;4593029;19;20227;-22
2022/12/06 01:14:21;;;;;;;;;;;13.20;96.30;;;;;;4588769;19;19911;-22
2022/12/06 01:15:53;;;;;;;;;;;13.20;96.30;;;;;;4591530;19;19919;-23
2022/12/06 01:17:24;;;;;;;;;;;13.20;96.60;;;;;;4591216;19;19921;-22
2022/12/06 01:18:55;;;;;;;;;;;13.20;96.40;;;;;;4592438;19;20245;-23
2022/12/06 01:20:27;;;;;;;;;;;13.20;96.40;;;;;;4592275;19;19922;-22
2022/12/06 01:21:58;;;;;;;;;;;13.20;96.40;;;;;;4590586;19;19919;-21
2022/12/06 01:23:29;;;;;;;;;;;13.20;96.40;;;;;;4592435;19;19919;-21
2022/12/06 01:25:02;;;;;;;;;;;13.20;96.40;;;;;;4592032;19;19926;-23
2022/12/06 01:26:33;;;;;;;;;;;13.20;96.40;;;;;;4591116;19;19923;-21
2022/12/06 01:28:04;;;;;;;;;;;13.20;96.50;;;;;;4591621;19;19949;-22
2022/12/06 01:29:35;;;;;;;;;;;13.20;96.50;;;;;;4591351;19;19917;-24
2022/12/06 01:31:06;;;;;;;;;;;13.20;96.50;;;;;;4591682;19;19935;-21
2022/12/06 01:32:37;;;;;;;;;;;13.20;96.50;;;;;;4592018;19;19910;-22
2022/12/06 01:34:13;;;;;;;;;;;13.20;96.50;;;;;;4591379;19;19923;-24
2022/12/06 01:35:45;;;;;;;;;;;13.20;96.50;;;;;;4591072;19;20262;-22
2022/12/06 01:37:16;;;;;;;;;;;13.10;96.50;;;;;;4590783;19;19915;-23
2022/12/06 01:38:48;;;;;;;;;;;13.20;96.70;;;;;;4590664;19;19926;-22
2022/12/06 01:40:21;;;;;;;;;;;13.20;96.60;;;;;;4592585;19;19970;-21
2022/12/06 01:41:52;;;;;;;;;;;13.20;96.60;;;;;;4592243;19;19982;-21
2022/12/06 01:43:42;;;;;;;;;;;13.20;96.60;;;;;;4591840;19;19915;-22
2022/12/06 01:45:13;;;;;;;;;;;13.20;96.60;;;;;;4590482;19;19970;-25
2022/12/06 01:46:44;;;;;;;;;;;13.20;96.60;;;;;;4591711;19;20255;-22
2022/12/06 01:48:15;;;;;;;;;;;13.20;96.60;;;;;;4591750;19;19919;-21
2022/12/06 01:49:48;;;;;;;;;;;13.20;96.60;;;;;;4590273;19;20329;-22
2022/12/06 01:51:19;;;;;;;;;;;13.10;96.50;;;;;;4591124;19;19926;-23
2022/12/06 01:52:52;;;;;;;;;;;13.10;96.60;;;;;;4590926;19;19938;-22
2022/12/06 01:54:24;;;;;;;;;;;13.20;96.50;;;;;;4588927;19;20001;-22
2022/12/06 01:55:55;;;;;;;;;;;13.20;96.50;;;;;;4588763;19;19919;-22
2022/12/06 01:57:26;;;;;;;;;;;13.20;96.50;;;;;;4589317;19;19939;-21
2022/12/06 01:58:57;;;;;;;;;;;13.30;96.50;;;;;;4589846;19;20292;-22
2022/12/06 02:00:28;;;;;;;;;;;13.30;96.50;;;;;;4590513;19;19922;-22
2022/12/06 02:02:00;;;;;;;;;;;13.30;96.50;;;;;;4590462;19;20389;-22
2022/12/06 02:03:32;;;;;;;;;;;13.30;96.50;;;;;;4590859;19;19915;-22
2022/12/06 02:05:03;;;;;;;;;;;13.30;96.70;;;;;;4589668;19;19942;-22
2022/12/06 02:06:35;;;;;;;;;;;13.30;96.50;;;;;;4589729;19;19919;-25
2022/12/06 02:08:08;;;;;;;;;;;13.30;96.50;;;;;;4589384;19;19923;-22
2022/12/06 02:09:39;;;;;;;;;;;13.30;96.50;;;;;;4589707;19;19938;-21
2022/12/06 02:11:11;;;;;;;;;;;13.30;96.50;;;;;;4589484;19;19930;-22
2022/12/06 02:12:42;;;;;;;;;;;13.30;96.50;;;;;;4590030;19;20341;-22
2022/12/06 02:14:14;;;;;;;;;;;13.20;96.50;;;;;;4588488;19;20348;-21
2022/12/06 02:16:03;;;;;;;;;;;13.30;96.50;;;;;;4589373;19;20289;-22
2022/12/06 02:17:45;;;;;;;;;;;13.30;96.50;;;;;;4590622;19;19927;-21
2022/12/06 02:19:30;;;;;;;;;;;13.30;96.50;;;;;;4589321;19;19990;-22
2022/12/06 02:21:02;;;;;;;;;;;13.30;96.50;;;;;;4589974;19;19922;-22
2022/12/06 02:22:39;;;;;;;;;;;13.30;96.50;;;;;;4590227;19;19974;-22
2022/12/06 02:24:28;;;;;;;;;;;13.20;96.50;;;;;;4590375;19;19943;-21
2022/12/06 02:26:06;;;;;;;;;;;13.30;96.50;;;;;;4590185;19;19927;-22
2022/12/06 02:27:43;;;;;;;;;;;13.30;96.50;;;;;;4590540;19;19918;-24
2022/12/06 02:29:16;;;;;;;;;;;13.30;96.50;;;;;;4590120;19;19922;-22
2022/12/06 02:30:58;;;;;;;;;;;13.30;96.60;;;;;;4590114;19;20344;-21
2022/12/06 02:32:38;;;;;;;;;;;13.30;96.50;;;;;;4590403;19;19921;-22
2022/12/06 02:34:10;;;;;;;;;;;13.20;96.60;;;;;;4598536;19;19915;-21
2022/12/06 02:35:57;;;;;;;;;;;13.30;96.60;;;;;;4599062;19;19926;-22
2022/12/06 02:37:40;;;;;;;;;;;13.30;96.60;;;;;;4597596;19;19926;-21
2022/12/06 02:39:15;;;;;;;;;;;13.20;96.60;;;;;;4597025;19;19927;-22
2022/12/06 02:40:53;;;;;;;;;;;13.20;96.60;;;;;;4597656;19;19918;-22
2022/12/06 02:42:25;;;;;;;;;;;13.30;96.60;;;;;;4598912;19;19918;-23
2022/12/06 02:44:02;;;;;;;;;;;13.20;96.60;;;;;;4597872;19;19919;-22
2022/12/06 02:45:36;;;;;;;;;;;13.30;96.60;;;;;;4598465;19;19926;-22
2022/12/06 02:47:13;;;;;;;;;;;13.20;96.70;;;;;;4597787;19;19936;-22
2022/12/06 02:48:46;;;;;;;;;;;13.20;96.70;;;;;;4599152;19;19918;-22
2022/12/06 02:50:18;;;;;;;;;;;13.30;96.70;;;;;;4598374;19;19915;-22
2022/12/06 02:51:49;;;;;;;;;;;13.20;96.70;;;;;;4597415;19;20352;-22
2022/12/06 02:53:20;;;;;;;;;;;13.20;96.70;;;;;;4598332;19;19918;-22
2022/12/06 02:54:55;;;;;;;;;;;13.20;96.70;;;;;;4598655;19;19926;-23
2022/12/06 02:56:26;;;;;;;;;;;13.30;96.70;;;;;;4597215;19;19922;-22
2022/12/06 02:57:57;;;;;;;;;;;13.20;96.70;;;;;;4597372;19;19966;-22
2022/12/06 02:59:29;;;;;;;;;;;13.30;96.70;;;;;;4597934;19;19983;-22
2022/12/06 03:01:00;;;;;;;;;;;13.20;96.70;;;;;;4597579;19;20333;-21
2022/12/06 03:02:31;;;;;;;;;;;13.20;96.60;;;;;;4597988;19;19927;-24
2022/12/06 03:04:05;;;;;;;;;;;13.20;96.60;;;;;;4597388;19;19919;-23
2022/12/06 03:05:57;;;;;;;;;;;13.20;96.60;;;;;;4598201;19;19922;-22
2022/12/06 03:07:28;;;;;;;;;;;13.20;96.60;;;;;;4596239;19;20234;-22
2022/12/06 03:09:05;;;;;;;;;;;13.20;96.60;;;;;;4596175;19;19974;-22
2022/12/06 03:10:38;;;;;;;;;;;13.20;96.60;;;;;;4596181;19;19922;-21
2022/12/06 03:12:08;;;;;;;;;;;13.20;96.60;;;;;;4596055;19;19944;-23
2022/12/06 03:13:43;;;;;;;;;;;13.20;96.60;;;;;;4596038;19;19923;-23
2022/12/06 03:15:20;;;;;;;;;;;13.20;96.60;;;;;;4596026;19;20334;-23
2022/12/06 03:16:53;;;;;;;;;;;13.20;96.50;;;;;;4596106;19;19914;-22
2022/12/06 03:18:30;;;;;;;;;;;13.20;96.50;;;;;;4595833;19;19934;-22
2022/12/06 03:20:08;;;;;;;;;;;13.20;96.50;;;;;;4596207;19;19926;-22
2022/12/06 03:21:40;;;;;;;;;;;13.20;96.50;;;;;;4595844;19;19915;-21
2022/12/06 03:23:15;;;;;;;;;;;13.20;96.50;;;;;;4595896;19;20334;-26
2022/12/06 03:24:47;;;;;;;;;;;13.20;96.50;;;;;;4595768;19;20453;-22
2022/12/06 03:26:20;;;;;;;;;;;13.20;96.50;;;;;;4596465;19;19915;-21
2022/12/06 03:27:51;;;;;;;;;;;13.20;96.50;;;;;;4595597;19;19926;-22
2022/12/06 03:29:22;;;;;;;;;;;13.20;96.50;;;;;;4595835;19;19922;-23
2022/12/06 03:30:56;;;;;;;;;;;13.20;96.50;;;;;;4595882;19;19911;-22
2022/12/06 03:32:29;;;;;;;;;;;13.20;96.50;;;;;;4595588;19;19932;-22
2022/12/06 03:34:02;;;;;;;;;;;13.20;96.40;;;;;;4594816;19;19942;-21
2022/12/06 03:35:33;;;;;;;;;;;13.20;96.40;;;;;;4595851;19;19926;-23
2022/12/06 03:37:05;;;;;;;;;;;13.20;96.40;;;;;;4595549;19;20342;-22
2022/12/06 03:38:36;;;;;;;;;;;13.20;96.40;;;;;;4595291;19;19926;-25
2022/12/06 03:40:16;;;;;;;;;;;13.20;96.40;;;;;;4595757;19;20330;-22
2022/12/06 03:41:49;;;;;;;;;;;13.20;96.50;;;;;;4595484;19;19922;-22
2022/12/06 03:43:19;;;;;;;;;;;13.20;96.40;;;;;;4595723;19;19915;-22
2022/12/06 03:44:50;;;;;;;;;;;13.20;96.50;;;;;;4592720;19;19919;-25
2022/12/06 03:46:29;;;;;;;;;;;13.20;96.50;;;;;;4593502;19;19919;-22
2022/12/06 03:48:03;;;;;;;;;;;13.20;96.50;;;;;;4592593;19;19911;-22
2022/12/06 03:49:35;;;;;;;;;;;13.30;96.50;;;;;;4593180;19;19934;-22
2022/12/06 03:51:07;;;;;;;;;;;13.30;96.50;;;;;;4593591;19;19933;-22
2022/12/06 03:52:38;;;;;;;;;;;13.20;96.50;;;;;;4592123;19;19923;-22
2022/12/06 03:54:09;;;;;;;;;;;13.30;96.60;;;;;;4592093;19;20318;-22
2022/12/06 03:55:41;;;;;;;;;;;13.20;96.50;;;;;;4591430;19;19914;-23
2022/12/06 03:57:13;;;;;;;;;;;13.30;96.50;;;;;;4593206;19;19915;-22
2022/12/06 03:58:44;;;;;;;;;;;13.30;96.80;;;;;;4593110;19;19922;-23
2022/12/06 04:00:16;;;;;;;;;;;13.30;96.60;;;;;;4593034;19;20340;-24
2022/12/06 04:01:46;;;;;;;;;;;13.30;96.60;;;;;;4593477;19;19919;-21
2022/12/06 04:03:17;;;;;;;;;;;13.30;96.60;;;;;;4593042;19;19923;-22
2022/12/06 04:04:49;;;;;;;;;;;13.30;96.60;;;;;;4593289;19;20336;-22
2022/12/06 04:06:20;;;;;;;;;;;13.20;96.60;;;;;;4592903;19;19922;-22
2022/12/06 04:07:51;;;;;;;;;;;13.20;96.60;;;;;;4593338;19;19966;-24
2022/12/06 04:11:12;;;;;;;;;;;13.20;96.60;;;;;;4593163;19;19923;-24
2022/12/06 04:13:00;;;;;;;;;;;13.20;96.70;;;;;;4592804;19;19919;-22
2022/12/06 04:14:38;;;;;;;;;;;13.20;96.70;;;;;;4591750;19;19927;-22
2022/12/06 04:18:12;;;;;;;;;;;13.20;96.80;;;;;;4592767;19;19925;-22
2022/12/06 04:19:43;;;;;;;;;;;13.20;96.80;;;;;;4592760;19;19930;-23
2022/12/06 04:23:05;;;;;;;;;;;13.20;96.80;;;;;;4592835;19;19931;-22
2022/12/06 04:24:36;;;;;;;;;;;13.20;96.80;;;;;;4591540;19;20341;-22
2022/12/06 04:26:08;;;;;;;;;;;13.20;96.80;;;;;;4592139;19;19919;-21
2022/12/06 04:38:40;;;;;;;;;;;13.10;96.80;;;;;;4590511;19;19919;-22
2022/12/06 04:40:12;;;;;;;;;;;13.10;96.90;;;;;;4591500;19;20404;-21
2022/12/06 04:43:42;;;;;;;;;;;13.20;96.80;;;;;;4592312;19;19919;-22
2022/12/06 04:45:14;;;;;;;;;;;13.20;96.80;;;;;;4592303;19;19983;-23
2022/12/06 04:46:45;;;;;;;;;;;13.20;96.80;;;;;;4593474;19;20333;-22
2022/12/06 04:48:16;;;;;;;;;;;13.30;96.80;;;;;;4591960;19;20334;-22
2022/12/06 04:49:47;;;;;;;;;;;13.40;96.70;;;;;;4592138;19;19915;-26
2022/12/06 04:51:19;;;;;;;;;;;13.40;96.70;;;;;;4592150;19;19935;-22
2022/12/06 04:52:50;;;;;;;;;;;13.50;96.60;;;;;;4592014;19;19918;-26
2022/12/06 04:54:21;;;;;;;;;;;13.60;96.50;;;;;;4591012;19;19919;-23
2022/12/06 04:55:52;;;;;;;;;;;13.60;96.40;;;;;;4589606;19;19953;-21
2022/12/06 04:57:23;;;;;;;;;;;13.60;96.40;;;;;;4589185;19;20369;-23
2022/12/06 04:58:55;;;;;;;;;;;13.60;96.50;;;;;;4592173;19;19923;-22
2022/12/06 05:00:26;;;;;;;;;;;13.60;96.40;;;;;;4592830;19;19927;-23
2022/12/06 05:01:57;;;;;;;;;;;13.60;96.50;;;;;;4590936;19;19915;-23
2022/12/06 05:03:28;;;;;;;;;;;13.60;96.50;;;;;;4589253;19;20264;-22
2022/12/06 05:04:59;;;;;;;;;;;13.60;96.50;;;;;;4589464;19;19988;-23
2022/12/06 05:06:30;;;;;;;;;;;13.60;96.50;;;;;;4589548;19;19923;-24
2022/12/06 05:08:02;;;;;;;;;;;13.60;96.50;;;;;;4589370;19;19919;-22
2022/12/06 05:09:33;;;;;;;;;;;13.60;96.50;;;;;;4589170;19;19953;-22
2022/12/06 05:11:04;;;;;;;;;;;13.70;96.60;;;;;;4588492;19;20334;-22
2022/12/06 05:12:36;;;;;;;;;;;13.80;96.40;;;;;;4588745;19;19943;-21
2022/12/06 05:14:06;;;;;;;;;;;13.70;96.40;;;;;;4588449;19;20253;-23
2022/12/06 05:15:37;;;;;;;;;;;13.70;96.50;;;;;;4589139;19;19911;-22
2022/12/06 05:17:09;;;;;;;;;;;13.70;96.50;;;;;;4589553;19;20013;-21
2022/12/06 05:18:40;;;;;;;;;;;13.60;96.60;;;;;;4592628;19;19922;-24
2022/12/06 05:20:13;;;;;;;;;;;13.60;96.50;;;;;;4593636;19;19918;-24
2022/12/06 05:21:46;;;;;;;;;;;13.60;96.50;;;;;;4594133;19;19915;-23
2022/12/06 05:23:17;;;;;;;;;;;13.70;96.40;;;;;;4594678;19;19915;-22
2022/12/06 05:24:48;;;;;;;;;;;13.70;96.40;;;;;;4594415;19;19922;-26
2022/12/06 05:26:21;;;;;;;;;;;13.70;96.50;;;;;;4591502;19;20329;-22
2022/12/06 05:27:53;;;;;;;;;;;13.80;96.50;;;;;;4593557;19;19926;-26
2022/12/06 05:29:25;;;;;;;;;;;13.70;96.60;;;;;;4592876;19;19919;-22
2022/12/06 05:30:56;;;;;;;;;;;13.70;96.60;;;;;;4591991;19;19930;-22
2022/12/06 05:32:27;;;;;;;;;;;13.60;96.70;;;;;;4594506;19;19918;-21
2022/12/06 05:33:58;;;;;;;;;;;13.60;96.80;;;;;;4591880;19;19925;-22
2022/12/06 05:35:44;;;;;;;;;;;13.60;96.80;;;;;;4590905;19;19911;-23
2022/12/06 05:37:16;;;;;;;;;;;13.60;96.90;;;;;;4592136;19;19926;-23
2022/12/06 05:38:47;;;;;;;;;;;13.60;96.90;;;;;;4591358;19;19919;-22
2022/12/06 05:40:18;;;;;;;;;;;13.50;96.90;;;;;;4593420;19;19927;-22
2022/12/06 05:41:49;;;;;;;;;;;13.60;97.00;;;;;;4594023;19;19919;-23
2022/12/06 05:43:21;;;;;;;;;;;13.50;97.00;;;;;;4593644;19;19978;-23
2022/12/06 05:44:52;;;;;;;;;;;13.50;97.10;;;;;;4593236;19;19943;-22
2022/12/06 05:46:23;;;;;;;;;;;13.50;97.10;;;;;;4591705;19;19927;-23
2022/12/06 05:47:55;;;;;;;;;;;13.50;97.10;;;;;;4593518;19;20234;-22
2022/12/06 05:49:26;;;;;;;;;;;13.50;97.30;;;;;;4592702;19;20317;-22
2022/12/06 05:50:58;;;;;;;;;;;13.50;97.10;;;;;;4590461;19;20357;-22
2022/12/06 05:52:29;;;;;;;;;;;13.50;97.20;;;;;;4592547;19;19922;-22
2022/12/06 05:54:03;;;;;;;;;;;13.50;97.20;;;;;;4593326;19;19917;-22
2022/12/06 05:55:35;;;;;;;;;;;13.50;97.20;;;;;;4592109;19;19919;-23
2022/12/06 05:57:06;;;;;;;;;;;13.50;97.20;;;;;;4590589;19;20345;-24
2022/12/06 05:58:36;;;;;;;;;;;13.50;97.30;;;;;;4590653;19;19911;-22
2022/12/06 06:00:08;;;;;;;;;;;13.40;97.30;;;;;;4591213;19;19922;-23
2022/12/06 06:01:39;;;;;;;;;;;13.50;97.30;;;;;;4591317;19;20371;-22
2022/12/06 06:03:10;;;;;;;;;;;13.40;97.30;;;;;;4591084;19;19926;-21
2022/12/06 06:04:41;;;;;;;;;;;13.50;97.40;;;;;;4592008;19;19975;-22
2022/12/06 06:06:12;;;;;;;;;;;13.40;97.40;;;;;;4590631;19;19915;-22
2022/12/06 06:07:43;;;;;;;;;;;13.40;97.40;;;;;;4590024;19;19994;-23
2022/12/06 06:09:14;;;;;;;;;;;13.40;97.40;;;;;;4591229;19;20302;-22
2022/12/06 06:10:45;;;;;;;;;;;13.40;97.70;;;;;;4591881;19;19923;-22
2022/12/06 06:12:16;;;;;;;;;;;13.40;97.40;;;;;;4592169;19;19922;-22
2022/12/06 06:13:48;;;;;;;;;;;13.40;97.50;;;;;;4592673;19;19936;-22
2022/12/06 06:15:18;;;;;;;;;;;13.40;97.40;;;;;;4592232;19;19919;-22
2022/12/06 06:16:51;;;;;;;;;;;13.40;97.50;;;;;;4593646;19;19922;-23
2022/12/06 06:18:23;;;;;;;;;;;13.40;97.50;;;;;;4590945;19;19978;-22
2022/12/06 06:19:54;;;;;;;;;;;13.40;97.50;;;;;;4591191;19;19919;-22
2022/12/06 06:21:25;;;;;;;;;;;13.40;97.50;;;;;;4591765;19;19915;-24
2022/12/06 06:22:57;;;;;;;;;;;13.40;97.60;;;;;;4590706;19;19926;-22
2022/12/06 06:24:33;;;;;;;;;;;13.40;97.60;;;;;;4590977;19;19919;-22
2022/12/06 06:26:05;;;;;;;;;;;13.40;97.60;;;;;;4590978;19;19915;-22
2022/12/06 06:27:37;;;;;;;;;;;13.40;97.60;;;;;;4591512;19;19915;-23
2022/12/06 06:29:08;;;;;;;;;;;13.40;97.60;;;;;;4593256;19;20260;-21
2022/12/06 06:30:39;;;;;;;;;;;13.40;97.60;;;;;;4590885;19;19915;-23
2022/12/06 06:32:11;;;;;;;;;;;13.40;97.70;;;;;;4591340;19;20362;-22
2022/12/06 06:33:42;;;;;;;;;;;13.40;97.90;;;;;;4591230;19;19915;-21
2022/12/06 06:35:14;;;;;;;;;;;13.40;97.70;;;;;;4590406;19;19913;-22
2022/12/06 06:36:46;;;;;;;;;;;13.40;97.70;;;;;;4589262;19;19915;-22
2022/12/06 06:38:18;;;;;;;;;;;13.40;97.70;;;;;;4589820;19;20325;-22
2022/12/06 06:39:49;;;;;;;;;;;13.40;97.70;;;;;;4590767;19;19915;-22
2022/12/06 06:41:21;;;;;;;;;;;13.40;97.70;;;;;;4590555;19;19932;-22
2022/12/06 06:42:52;;;;;;;;;;;13.40;97.70;;;;;;4590923;19;19915;-21
2022/12/06 06:44:25;;;;;;;;;;;13.30;97.70;;;;;;4590640;19;20328;-22
2022/12/06 06:46:17;;;;;;;;;;;13.40;97.80;;;;;;4591308;19;19927;-23
2022/12/06 06:47:48;;;;;;;;;;;13.40;97.80;;;;;;4590327;19;20336;-23
2022/12/06 06:49:20;;;;;;;;;;;13.30;97.80;;;;;;4590380;19;20255;-22
2022/12/06 06:50:52;;;;;;;;;;;13.40;97.90;;;;;;4590197;19;19929;-21
2022/12/06 06:52:23;;;;;;;;;;;13.30;97.80;;;;;;4589878;19;19950;-22
2022/12/06 06:53:54;;;;;;;;;;;13.40;97.90;;;;;;4589558;19;19915;-23
2022/12/06 06:55:25;;;;;;;;;;;13.30;97.90;;;;;;4590067;19;19945;-22
2022/12/06 06:56:57;;;;;;;;;;;13.40;97.90;;;;;;4590454;19;20330;-23
2022/12/06 06:58:28;;;;;;;;;;;13.30;97.90;;;;;;4589538;19;19915;-23
2022/12/06 06:59:59;;;;;;;;;;;13.40;97.90;;;;;;4589837;19;20260;-22
2022/12/06 07:01:30;;;;;;;;;;;13.30;97.90;;;;;;4589849;19;19918;-22
2022/12/06 07:03:02;;;;;;;;;;;13.30;97.90;;;;;;4590197;19;19919;-21
2022/12/06 07:04:33;;;;;;;;;;;13.30;98.00;;;;;;4588835;19;19915;-22
2022/12/06 07:06:06;;;;;;;;;;;13.30;98.00;;;;;;4589661;19;19907;-22
2022/12/06 07:07:37;;;;;;;;;;;13.30;98.20;;;;;;4590185;19;19911;-21
2022/12/06 07:09:09;;;;;;;;;;;13.30;98.10;;;;;;4590888;19;19915;-22
2022/12/06 07:10:40;;;;;;;;;;;13.30;98.20;;;;;;4588942;19;19945;-22
2022/12/06 07:12:14;;;;;;;;;;;13.30;98.10;;;;;;4589570;19;19914;-22
2022/12/06 07:13:45;;;;;;;;;;;13.30;98.10;;;;;;4590151;19;19918;-25
2022/12/06 07:15:16;;;;;;;;;;;13.30;98.10;;;;;;4590816;19;19996;-21
2022/12/06 07:16:47;;;;;;;;;;;13.30;98.30;;;;;;4588815;19;19938;-22
2022/12/06 07:18:18;;;;;;;;;;;13.30;98.10;;;;;;4589490;19;20402;-23
2022/12/06 07:19:49;;;;;;;;;;;13.30;98.10;;;;;;4591203;19;19918;-23
2022/12/06 07:21:23;;;;;;;;;;;13.30;98.10;;;;;;4594867;19;19929;-23
2022/12/06 07:22:55;;;;;;;;;;;13.30;98.20;;;;;;4594471;19;19939;-23
2022/12/06 07:24:26;;;;;;;;;;;13.30;98.20;;;;;;4594752;19;19919;-22
2022/12/06 07:26:01;;;;;;;;;;;13.30;98.20;;;;;;4593989;19;19915;-22
2022/12/06 07:27:35;;;;;;;;;;;13.30;98.20;;;;;;4592921;19;19927;-23
2022/12/06 07:29:07;;;;;;;;;;;13.30;98.20;;;;;;4593671;19;20035;-22
2022/12/06 07:30:38;;;;;;;;;;;13.30;98.20;;;;;;4594015;19;19950;-22
2022/12/06 07:32:09;;;;;;;;;;;13.30;98.20;;;;;;4595321;19;19923;-22
2022/12/06 07:33:41;;;;;;;;;;;13.30;98.30;;;;;;4593440;19;19943;-22
2022/12/06 07:35:18;;;;;;;;;;;13.30;98.20;;;;;;4593838;19;19930;-21
2022/12/06 07:36:49;;;;;;;;;;;13.30;98.30;;;;;;4593770;19;19915;-22
2022/12/06 07:38:20;;;;;;;;;;;13.30;98.30;;;;;;4593610;19;20383;-22
2022/12/06 07:39:52;;;;;;;;;;;13.30;98.30;;;;;;4594894;19;19947;-22
2022/12/06 07:45:06;;;;;;;;;;;13.30;98.40;;;;;;4593179;19;19935;-22
2022/12/06 07:46:37;;;;;;;;;;;13.30;98.40;;;;;;4594425;19;19927;-21
2022/12/06 07:48:10;;;;;;;;;;;13.40;98.40;;;;;;4596422;19;19922;-23
2022/12/06 07:49:41;;;;;;;;;;;13.40;98.30;;;;;;4594064;19;19943;-22
2022/12/06 07:51:12;;;;;;;;;;;13.40;98.40;;;;;;4593997;19;19919;-24
2022/12/06 07:52:43;;;;;;;;;;;13.40;98.40;;;;;;4595101;19;19919;-22
2022/12/06 07:54:14;;;;;;;;;;;13.30;98.40;;;;;;4593048;19;19974;-22
2022/12/06 07:55:46;;;;;;;;;;;13.30;98.50;;;;;;4593039;19;20392;-21
2022/12/06 07:57:17;;;;;;;;;;;13.30;98.50;;;;;;4591533;19;19930;-21
2022/12/06 07:58:48;;;;;;;;;;;13.30;98.50;;;;;;4592594;19;19934;-23
2022/12/06 08:00:20;;;;;;;;;;;13.30;98.50;;;;;;4592762;19;19923;-22
2022/12/06 08:01:51;;;;;;;;;;;13.30;98.60;;;;;;4591827;19;19919;-22
2022/12/06 08:03:22;;;;;;;;;;;13.30;98.60;;;;;;4592006;19;19915;-22
2022/12/06 08:04:54;;;;;;;;;;;13.30;98.60;;;;;;4593520;19;19922;-21
2022/12/06 08:06:25;;;;;;;;;;;13.20;98.60;;;;;;4593984;19;19927;-22
2022/12/06 08:07:56;;;;;;;;;;;13.30;98.70;;;;;;4594293;19;19994;-22
2022/12/06 08:09:27;;;;;;;;;;;13.30;98.70;;;;;;4594479;19;19918;-21
2022/12/06 08:10:59;;;;;;;;;;;13.30;98.70;;;;;;4593583;19;19923;-22
2022/12/06 08:12:30;;;;;;;;;;;13.20;98.70;;;;;;4593728;19;19915;-21
2022/12/06 08:14:02;;;;;;;;;;;13.30;98.70;;;;;;4593116;19;19921;-22
2022/12/06 08:15:33;;;;;;;;;;;13.30;98.80;;;;;;4592708;19;19915;-23
2022/12/06 08:17:04;;;;;;;;;;;13.30;98.80;;;;;;4592993;19;20227;-21
2022/12/06 08:18:36;;;;;;;;;;;13.20;98.80;;;;;;4593145;19;19919;-22
2022/12/06 08:20:07;;;;;;;;;;;13.30;98.80;;;;;;4593412;19;19968;-22
2022/12/06 08:21:38;;;;;;;;;;;13.20;98.80;;;;;;4593184;19;19911;-22
2022/12/06 08:23:09;;;;;;;;;;;13.30;98.80;;;;;;4591877;19;20393;-22
2022/12/06 08:24:40;;;;;;;;;;;13.30;98.80;;;;;;4592913;19;19935;-24
2022/12/06 08:26:12;;;;;;;;;;;13.30;98.80;;;;;;4594058;19;19951;-21
2022/12/06 08:27:43;;;;;;;;;;;13.30;98.80;;;;;;4592975;19;19919;-22
2022/12/06 08:29:15;;;;;;;;;;;13.30;98.80;;;;;;4593440;19;19925;-23
2022/12/06 08:30:46;;;;;;;;;;;13.30;98.80;;;;;;4593123;19;19910;-21
2022/12/06 08:32:18;;;;;;;;;;;13.30;98.80;;;;;;4592383;19;20297;-21
2022/12/06 08:33:49;;;;;;;;;;;13.30;98.80;;;;;;4592127;19;19922;-22
2022/12/06 08:35:20;;;;;;;;;;;13.30;98.80;;;;;;4591651;19;20329;-22
2022/12/06 08:36:51;;;;;;;;;;;13.30;98.80;;;;;;4594979;19;20023;-23
2022/12/06 08:38:22;;;;;;;;;;;13.30;98.90;;;;;;4592380;19;19915;-22
2022/12/06 08:39:53;;;;;;;;;;;13.20;98.80;;;;;;4592777;19;19926;-24
2022/12/06 08:43:15;;;;;;;;;;;13.30;98.90;;;;;;4591461;19;19933;-23
2022/12/06 08:44:50;;;;;;;;;;;13.30;98.90;;;;;;4593321;19;19974;-22
2022/12/06 08:46:27;;;;;;;;;;;13.30;98.90;;;;;;4592569;19;20362;-22
2022/12/06 08:48:00;;;;;;;;;;;13.30;98.90;;;;;;4591877;19;19919;-22
2022/12/06 08:49:31;;;;;;;;;;;13.30;98.80;;;;;;4592762;19;19935;-21
2022/12/06 08:51:02;;;;;;;;;;;13.40;98.80;;;;;;4593262;19;19919;-23
2022/12/06 08:52:33;;;;;;;;;;;13.50;98.70;;;;;;4592908;19;19911;-22
2022/12/06 08:54:05;;;;;;;;;;;13.50;98.60;;;;;;4591965;19;20379;-22
2022/12/06 08:55:37;;;;;;;;;;;13.60;98.60;;;;;;4591764;19;19919;-22
2022/12/06 08:57:08;;;;;;;;;;;13.60;98.50;;;;;;4590261;19;20020;-21
2022/12/06 08:58:39;;;;;;;;;;;13.60;98.50;;;;;;4590715;19;19927;-22
2022/12/06 09:00:11;;;;;;;;;;;13.60;98.50;;;;;;4591048;19;20014;-21
2022/12/06 09:01:42;;;;;;;;;;;13.60;98.50;;;;;;4590761;19;19923;-23
2022/12/06 09:03:13;;;;;;;;;;;13.60;98.50;;;;;;4590484;19;19946;-22
2022/12/06 09:04:45;;;;;;;;;;;13.60;98.50;;;;;;4590678;19;19923;-24
2022/12/06 09:06:16;;;;;;;;;;;13.60;98.50;;;;;;4590746;19;20318;-23
2022/12/06 09:07:47;;;;;;;;;;;13.60;98.60;;;;;;4592340;19;20414;-21
2022/12/06 09:09:19;;;;;;;;;;;13.60;98.60;;;;;;4591695;19;19926;-22
2022/12/06 09:10:50;;;;;;;;;;;13.60;98.60;;;;;;4590759;19;19915;-23
2022/12/06 09:12:21;;;;;;;;;;;13.50;98.60;;;;;;4591373;19;19911;-23
2022/12/06 09:13:53;;;;;;;;;;;13.50;98.70;;;;;;4590867;19;19946;-22
2022/12/06 09:15:26;;;;;;;;;;;13.50;98.70;;;;;;4589652;19;19923;-23
2022/12/06 09:16:57;;;;;;;;;;;13.50;98.90;;;;;;4590035;19;19922;-22
2022/12/06 09:18:28;;;;;;;;;;;13.50;98.70;;;;;;4589409;19;20250;-24
2022/12/06 09:19:59;;;;;;;;;;;13.50;98.80;;;;;;4591658;19;19922;-23
2022/12/06 09:21:32;;;;;;;;;;;13.50;98.80;;;;;;4591043;19;19915;-23